Time;durP1;ratioP1;P1;durP2;ratioP2;P2;SDS_P1;SDS_P2;PMS_P1;PMS_P2;Temp;Humidity;BMP_temperature;BMP_pressure;BME280_temperature;BME280_humidity;BME280_pressure;Samples;Min_cycle;Max_cycle;Signal;HPM_P1;HPM_P2
2021/08/18 00:00:25;;;;;;;1999.90;999.90;;;15.90;99.90;;;;;;5098954;28;20448;-82
2021/08/18 00:02:53;;;;;;;1999.90;999.90;;;15.90;99.90;;;;;;5096648;28;20452;-83
2021/08/18 00:05:20;;;;;;;1999.90;999.90;;;15.90;99.90;;;;;;5097432;28;20488;-83
2021/08/18 00:07:47;;;;;;;1999.90;999.90;;;15.80;99.90;;;;;;5097064;28;20447;-81
2021/08/18 00:10:14;;;;;;;1999.90;999.90;;;15.80;99.90;;;;;;5097586;28;20458;-83
2021/08/18 00:12:42;;;;;;;1999.90;999.90;;;15.80;99.90;;;;;;5096716;28;20451;-82
2021/08/18 00:15:13;;;;;;;1999.90;999.90;;;15.90;99.90;;;;;;5097050;28;20851;-83
2021/08/18 00:17:40;;;;;;;1999.90;999.90;;;15.90;99.90;;;;;;5097501;28;20476;-83
2021/08/18 00:20:10;;;;;;;1999.90;999.90;;;16.00;99.90;;;;;;5096801;28;20454;-83
2021/08/18 00:22:36;;;;;;;1999.90;999.90;;;16.00;99.90;;;;;;5096150;28;20455;-83
2021/08/18 00:25:05;;;;;;;1999.90;999.90;;;15.90;99.90;;;;;;5092956;28;20499;-83
2021/08/18 00:27:32;;;;;;;1999.90;999.90;;;15.90;99.90;;;;;;5089280;28;20460;-83
2021/08/18 00:29:59;;;;;;;1999.90;999.90;;;16.00;99.90;;;;;;5093531;28;20450;-84
2021/08/18 00:32:26;;;;;;;1999.90;999.90;;;16.00;99.90;;;;;;5094752;28;20450;-83
2021/08/18 00:34:53;;;;;;;1999.90;999.90;;;15.90;99.90;;;;;;5094949;28;20470;-83
2021/08/18 00:37:21;;;;;;;1999.90;999.90;;;15.90;99.90;;;;;;5094300;28;20463;-82
2021/08/18 00:39:48;;;;;;;1999.90;999.90;;;16.00;99.90;;;;;;5095492;28;20447;-83
2021/08/18 00:42:15;;;;;;;1999.90;999.90;;;15.80;99.90;;;;;;5093851;28;20469;-83
2021/08/18 00:44:42;;;;;;;1999.90;999.90;;;15.90;99.90;;;;;;5094745;28;20489;-83
2021/08/18 00:47:09;;;;;;;1999.90;999.90;;;15.90;99.90;;;;;;5093764;28;20454;-84
2021/08/18 00:49:36;;;;;;;1999.90;999.90;;;16.00;99.90;;;;;;5094895;28;20448;-83
2021/08/18 00:52:04;;;;;;;1999.90;999.90;;;15.90;99.90;;;;;;5094516;28;20541;-83
2021/08/18 00:54:33;;;;;;;1999.90;999.90;;;15.80;99.90;;;;;;5096078;28;20462;-84
2021/08/18 00:57:02;;;;;;;1999.90;999.90;;;15.90;99.90;;;;;;5094682;28;20811;-82
2021/08/18 00:59:29;;;;;;;1999.90;999.90;;;15.90;99.90;;;;;;5094766;28;20457;-82
2021/08/18 01:01:57;;;;;;;1999.90;999.90;;;16.00;99.90;;;;;;5094586;28;20457;-83
2021/08/18 01:04:23;;;;;;;1999.90;999.90;;;16.00;99.90;;;;;;5086140;28;20489;-82
2021/08/18 01:06:50;;;;;;;1999.90;999.90;;;16.00;99.90;;;;;;5094634;28;20483;-84
2021/08/18 01:09:20;;;;;;;1999.90;999.90;;;15.90;99.90;;;;;;5094565;28;20543;-83
2021/08/18 01:11:50;;;;;;;1999.90;999.90;;;15.90;99.90;;;;;;5097221;28;20442;-83
2021/08/18 01:14:20;;;;;;;1999.90;999.90;;;15.80;99.90;;;;;;5106390;28;20473;-85
2021/08/18 01:16:49;;;;;;;1999.90;999.90;;;15.90;99.90;;;;;;5107072;28;20493;-84
2021/08/18 01:19:17;;;;;;;1999.90;999.90;;;15.90;99.90;;;;;;5108244;28;20452;-83
2021/08/18 01:21:45;;;;;;;1999.90;999.90;;;15.90;99.90;;;;;;5101923;28;20947;-82
2021/08/18 01:24:13;;;;;;;1999.90;999.90;;;15.90;99.90;;;;;;5094887;28;20478;-82
2021/08/18 01:26:41;;;;;;;1999.90;999.90;;;15.80;99.90;;;;;;5098588;28;20455;-83
2021/08/18 01:29:09;;;;;;;1999.90;999.90;;;15.80;99.90;;;;;;5096909;28;20447;-83
2021/08/18 01:31:36;;;;;;;1999.90;999.90;;;15.90;99.90;;;;;;5097969;28;20444;-82
2021/08/18 01:34:05;;;;;;;1999.90;999.90;;;15.80;99.90;;;;;;5097747;28;20482;-82
2021/08/18 01:36:33;;;;;;;1999.90;999.90;;;15.90;99.90;;;;;;5097790;28;20441;-83
2021/08/18 01:39:01;;;;;;;1999.90;999.90;;;15.90;99.90;;;;;;5096976;28;20470;-83
2021/08/18 01:41:28;;;;;;;1999.90;999.90;;;15.90;99.90;;;;;;5102555;28;20448;-83
2021/08/18 01:43:55;;;;;;;1999.90;999.90;;;16.00;99.90;;;;;;5101144;28;20475;-83
2021/08/18 01:46:23;;;;;;;1999.90;999.90;;;16.00;99.90;;;;;;5101051;28;20552;-82
2021/08/18 01:48:50;;;;;;;1999.90;999.90;;;16.00;99.90;;;;;;5103635;28;20545;-83
2021/08/18 01:51:17;;;;;;;1999.90;999.90;;;16.00;99.90;;;;;;5103940;28;20442;-83
2021/08/18 01:53:46;;;;;;;1999.90;999.90;;;15.90;99.90;;;;;;5103549;28;20519;-83
2021/08/18 01:56:16;;;;;;;1999.90;999.90;;;16.00;99.90;;;;;;5104693;28;20528;-82
2021/08/18 01:58:44;;;;;;;1999.90;999.90;;;16.00;99.90;;;;;;5102203;28;20847;-83
2021/08/18 02:01:14;;;;;;;1999.90;999.90;;;16.10;99.90;;;;;;5102200;28;20484;-82
2021/08/18 02:03:42;;;;;;;1999.90;999.90;;;16.00;99.90;;;;;;5100690;28;20525;-82
2021/08/18 02:06:09;;;;;;;1999.90;999.90;;;16.00;99.90;;;;;;5101693;28;20488;-83
2021/08/18 02:08:36;;;;;;;1999.90;999.90;;;16.00;99.90;;;;;;5102484;28;20448;-82
2021/08/18 02:11:03;;;;;;;1999.90;999.90;;;16.00;99.90;;;;;;5101910;28;20486;-84
2021/08/18 02:13:30;;;;;;;1999.90;999.90;;;16.00;99.90;;;;;;5104427;28;20450;-83
2021/08/18 02:15:57;;;;;;;1999.90;999.90;;;16.10;99.90;;;;;;5100509;28;20444;-83
2021/08/18 02:18:24;;;;;;;1999.90;999.90;;;16.10;99.90;;;;;;5103427;28;20806;-84
2021/08/18 02:20:52;;;;;;;1999.90;999.90;;;16.00;99.90;;;;;;5101984;28;20454;-83
2021/08/18 02:23:19;;;;;;;1999.90;999.90;;;16.10;99.90;;;;;;5101886;28;20544;-81
2021/08/18 02:25:46;;;;;;;1999.90;999.90;;;16.10;99.90;;;;;;5103471;28;21026;-83
2021/08/18 02:28:13;;;;;;;1999.90;999.90;;;16.10;99.90;;;;;;5103452;28;20456;-82
2021/08/18 02:30:40;;;;;;;1999.90;999.90;;;16.10;99.90;;;;;;5103481;28;20445;-83
2021/08/18 02:33:08;;;;;;;1999.90;999.90;;;16.10;99.90;;;;;;5103126;28;20450;-82
2021/08/18 02:35:36;;;;;;;1999.90;999.90;;;16.10;99.90;;;;;;5100662;28;20850;-82
2021/08/18 02:38:05;;;;;;;1999.90;999.90;;;16.10;99.90;;;;;;5101738;28;20457;-83
2021/08/18 02:40:32;;;;;;;1999.90;999.90;;;16.10;99.90;;;;;;5107641;28;20589;-83
2021/08/18 02:43:00;;;;;;;1999.90;999.90;;;16.20;99.90;;;;;;5106197;28;20450;-84
2021/08/18 02:45:29;;;;;;;1999.90;999.90;;;16.20;99.90;;;;;;5105713;28;20485;-83
2021/08/18 02:47:56;;;;;;;1999.90;999.90;;;16.20;99.90;;;;;;5106713;28;20512;-83
2021/08/18 02:50:25;;;;;;;1999.90;999.90;;;16.20;99.90;;;;;;5106534;28;20503;-84
2021/08/18 02:52:52;;;;;;;1999.90;999.90;;;16.20;99.90;;;;;;5106307;28;20442;-84
2021/08/18 02:55:20;;;;;;;1999.90;999.90;;;16.20;99.90;;;;;;5106796;28;20477;-84
2021/08/18 02:57:47;;;;;;;1999.90;999.90;;;16.20;99.90;;;;;;5105421;28;20442;-83
2021/08/18 03:00:15;;;;;;;1999.90;999.90;;;16.10;99.90;;;;;;5106891;28;20552;-83
2021/08/18 03:02:42;;;;;;;1999.90;999.90;;;16.20;99.90;;;;;;5106676;28;20446;-84
2021/08/18 03:05:10;;;;;;;1999.90;999.90;;;16.00;99.90;;;;;;5107972;28;20544;-84
2021/08/18 03:07:37;;;;;;;1999.90;999.90;;;16.10;99.90;;;;;;5108887;28;20466;-83
2021/08/18 03:10:04;;;;;;;1999.90;999.90;;;16.10;99.90;;;;;;5109158;28;20452;-83
2021/08/18 03:12:32;;;;;;;1999.90;999.90;;;16.20;99.90;;;;;;5110519;28;20526;-83
2021/08/18 03:15:00;;;;;;;1999.90;999.90;;;16.10;99.90;;;;;;5110451;28;20537;-83
2021/08/18 03:17:26;;;;;;;1999.90;999.90;;;16.20;99.90;;;;;;5115404;28;20541;-83
2021/08/18 03:19:54;;;;;;;1999.90;999.90;;;16.10;99.90;;;;;;5102227;28;20462;-82
2021/08/18 03:22:20;;;;;;;1999.90;999.90;;;16.20;99.90;;;;;;5100842;28;20486;-82
2021/08/18 03:24:47;;;;;;;1999.90;999.90;;;16.20;99.90;;;;;;5100176;28;20535;-82
2021/08/18 03:27:14;;;;;;;1999.90;999.90;;;16.10;99.90;;;;;;5099113;28;20450;-82
2021/08/18 03:29:43;;;;;;;1999.90;999.90;;;16.10;99.90;;;;;;5100337;28;20451;-82
2021/08/18 03:32:10;;;;;;;1999.90;999.90;;;16.20;99.90;;;;;;5099782;28;20496;-82
2021/08/18 03:34:37;;;;;;;1999.90;999.90;;;16.20;99.90;;;;;;5100048;28;20454;-82
2021/08/18 03:37:04;;;;;;;1999.90;999.90;;;16.20;99.90;;;;;;5099142;28;20474;-82
2021/08/18 03:39:32;;;;;;;1999.90;999.90;;;16.10;99.90;;;;;;5099741;28;20599;-83
2021/08/18 03:41:59;;;;;;;1999.90;999.90;;;16.20;99.90;;;;;;5099469;28;20450;-82
2021/08/18 03:44:26;;;;;;;1999.90;999.90;;;16.20;99.90;;;;;;5097889;28;20476;-83
2021/08/18 03:46:55;;;;;;;1999.90;999.90;;;16.20;99.90;;;;;;5099131;28;20543;-83
2021/08/18 03:49:22;;;;;;;1999.90;999.90;;;16.20;99.90;;;;;;5098561;28;20529;-82
2021/08/18 03:51:50;;;;;;;1999.90;999.90;;;16.10;99.90;;;;;;5077301;28;20888;-82
2021/08/18 03:54:17;;;;;;;1999.90;999.90;;;16.10;99.90;;;;;;5075449;28;20511;-84
2021/08/18 03:56:44;;;;;;;1999.90;999.90;;;16.10;99.90;;;;;;5076430;28;20450;-83
2021/08/18 03:59:11;;;;;;;1999.90;999.90;;;16.10;99.90;;;;;;5075761;28;20562;-83
2021/08/18 04:01:38;;;;;;;1999.90;999.90;;;16.20;99.90;;;;;;5075932;28;20461;-84
2021/08/18 04:04:07;;;;;;;1999.90;999.90;;;16.10;99.90;;;;;;5082232;28;20481;-84
2021/08/18 04:06:33;;;;;;;1999.90;999.90;;;16.10;99.90;;;;;;5095820;28;20489;-82
2021/08/18 04:09:00;;;;;;;1999.90;999.90;;;16.10;99.90;;;;;;5095359;28;20453;-83
2021/08/18 04:11:27;;;;;;;1999.90;999.90;;;16.10;99.90;;;;;;5094996;28;20452;-84
2021/08/18 04:13:54;;;;;;;1999.90;999.90;;;16.20;99.90;;;;;;5095226;28;20489;-83
2021/08/18 04:16:21;;;;;;;1999.90;999.90;;;16.20;99.90;;;;;;5123669;22;20506;-85
2021/08/18 04:18:48;;;;;;;1999.90;999.90;;;16.10;99.90;;;;;;5110227;28;20475;-86
2021/08/18 04:21:16;;;;;;;1999.90;999.90;;;16.20;99.90;;;;;;5110714;28;20539;-86
2021/08/18 04:23:43;;;;;;;1999.90;999.90;;;16.30;99.90;;;;;;5113247;28;20449;-85
2021/08/18 04:26:10;;;;;;;1999.90;999.90;;;16.30;99.90;;;;;;5104892;28;20536;-85
2021/08/18 04:28:37;;;;;;;1999.90;999.90;;;16.30;99.90;;;;;;5095295;28;20499;-86
2021/08/18 04:31:04;;;;;;;1999.90;999.90;;;16.20;99.90;;;;;;5095565;28;20455;-83
2021/08/18 04:33:31;;;;;;;1999.90;999.90;;;16.20;99.90;;;;;;5086697;28;20450;-84
2021/08/18 04:35:57;;;;;;;1999.90;999.90;;;16.30;99.90;;;;;;5081013;28;20468;-84
2021/08/18 04:38:25;;;;;;;1999.90;999.90;;;16.30;99.90;;;;;;5080664;28;20438;-82
2021/08/18 04:40:52;;;;;;;1999.90;999.90;;;16.30;99.90;;;;;;5078850;28;20447;-82
2021/08/18 04:43:20;;;;;;;1999.90;999.90;;;16.20;99.90;;;;;;5080226;28;20454;-83
2021/08/18 04:45:47;;;;;;;1999.90;999.90;;;16.20;99.90;;;;;;5078462;28;20863;-83
2021/08/18 04:48:13;;;;;;;1999.90;999.90;;;16.20;99.90;;;;;;5080284;28;20474;-82
2021/08/18 04:50:40;;;;;;;1999.90;999.90;;;16.30;99.90;;;;;;5079733;28;20542;-84
2021/08/18 04:53:08;;;;;;;1999.90;999.90;;;16.30;99.90;;;;;;5074824;28;20450;-82
2021/08/18 04:55:37;;;;;;;1999.90;999.90;;;16.40;99.90;;;;;;5073450;28;20918;-83
2021/08/18 04:58:04;;;;;;;1999.90;999.90;;;16.30;99.90;;;;;;5079937;28;20456;-83
2021/08/18 05:00:31;;;;;;;1999.90;999.90;;;16.40;99.90;;;;;;5080565;28;20442;-83
2021/08/18 05:02:58;;;;;;;1999.90;999.90;;;16.30;99.90;;;;;;5060792;28;20531;-83
2021/08/18 05:05:25;;;;;;;1999.90;999.90;;;16.20;99.90;;;;;;5060529;28;20489;-84
2021/08/18 05:07:52;;;;;;;1999.90;999.90;;;16.20;99.90;;;;;;5060386;28;20455;-83
2021/08/18 05:10:19;;;;;;;1999.90;999.90;;;16.10;99.90;;;;;;5060957;28;20828;-84
2021/08/18 05:12:47;;;;;;;1999.90;999.90;;;16.10;99.90;;;;;;5060042;28;20467;-84
2021/08/18 05:15:14;;;;;;;1999.90;999.90;;;16.00;99.90;;;;;;5061481;28;20470;-84
2021/08/18 05:17:44;;;;;;;1999.90;999.90;;;16.10;99.90;;;;;;5060990;28;20467;-83
2021/08/18 05:20:11;;;;;;;1999.90;999.90;;;16.20;99.90;;;;;;5062446;28;20455;-83
2021/08/18 05:22:38;;;;;;;1999.90;999.90;;;16.10;99.90;;;;;;5084406;28;20531;-84
2021/08/18 05:25:05;;;;;;;1999.90;999.90;;;16.10;99.90;;;;;;5085310;28;20506;-83
2021/08/18 05:27:33;;;;;;;1999.90;999.90;;;16.20;99.90;;;;;;5085164;28;20477;-84
2021/08/18 05:30:01;;;;;;;1999.90;999.90;;;16.20;99.90;;;;;;5085215;28;20827;-85
2021/08/18 05:32:28;;;;;;;1999.90;999.90;;;16.30;99.90;;;;;;5085433;28;20447;-83
2021/08/18 05:34:56;;;;;;;1999.90;999.90;;;16.30;99.90;;;;;;5086060;28;20929;-83
2021/08/18 05:37:23;;;;;;;1999.90;999.90;;;16.30;99.90;;;;;;5086448;28;20451;-83
2021/08/18 05:39:49;;;;;;;1999.90;999.90;;;16.30;99.90;;;;;;5087714;28;20453;-83
2021/08/18 05:42:17;;;;;;;1999.90;999.90;;;16.30;99.90;;;;;;5086579;28;20903;-85
2021/08/18 05:44:43;;;;;;;1999.90;999.90;;;16.20;99.90;;;;;;5087132;28;20460;-84
2021/08/18 05:47:12;;;;;;;1999.90;999.90;;;16.30;99.90;;;;;;5086595;28;20581;-83
2021/08/18 05:49:38;;;;;;;1999.90;999.90;;;16.30;99.90;;;;;;5085030;28;20533;-83
2021/08/18 05:52:06;;;;;;;1999.90;999.90;;;16.40;99.90;;;;;;5081767;28;20476;-84
2021/08/18 05:54:32;;;;;;;1999.90;999.90;;;16.40;99.90;;;;;;5078568;28;20462;-84
2021/08/18 05:56:59;;;;;;;1999.90;999.90;;;16.30;99.90;;;;;;5075621;28;20854;-84
2021/08/18 05:59:26;;;;;;;1999.90;999.90;;;16.40;99.90;;;;;;5071427;28;20529;-84
2021/08/18 06:01:53;;;;;;;1999.90;999.90;;;16.30;99.90;;;;;;5068784;28;20465;-83
2021/08/18 06:04:21;;;;;;;1999.90;999.90;;;16.40;99.90;;;;;;5058849;28;20458;-84
2021/08/18 06:06:48;;;;;;;1999.90;999.90;;;16.50;99.90;;;;;;5059359;28;20486;-84
2021/08/18 06:09:15;;;;;;;1999.90;999.90;;;16.50;99.90;;;;;;5065783;28;20443;-85
2021/08/18 06:11:43;;;;;;;1999.90;999.90;;;16.60;99.90;;;;;;5073272;28;20514;-83
2021/08/18 06:14:10;;;;;;;1999.90;999.90;;;16.50;99.90;;;;;;5075832;28;20457;-84
2021/08/18 06:16:37;;;;;;;1999.90;999.90;;;16.60;99.90;;;;;;5078928;28;20557;-84
2021/08/18 06:19:03;;;;;;;1999.90;999.90;;;16.60;99.90;;;;;;5076404;28;20534;-83
2021/08/18 06:21:32;;;;;;;1999.90;999.90;;;16.60;99.90;;;;;;5080518;28;20447;-85
2021/08/18 06:24:03;;;;;;;1999.90;999.90;;;16.60;99.90;;;;;;5080187;28;20489;-84
2021/08/18 06:26:30;;;;;;;1999.90;999.90;;;16.60;99.90;;;;;;5078357;28;20490;-82
2021/08/18 06:28:57;;;;;;;1999.90;999.90;;;16.70;99.90;;;;;;5079038;28;20554;-83
2021/08/18 06:31:24;;;;;;;1999.90;999.90;;;16.60;99.90;;;;;;5080201;28;20914;-84
2021/08/18 06:33:52;;;;;;;1999.90;999.90;;;16.50;99.90;;;;;;5082118;28;20895;-84
2021/08/18 06:36:19;;;;;;;1999.90;999.90;;;16.50;99.90;;;;;;5078935;28;20536;-84
2021/08/18 06:38:47;;;;;;;1999.90;999.90;;;16.30;99.90;;;;;;5080035;28;20453;-84
2021/08/18 06:41:14;;;;;;;1999.90;999.90;;;16.30;99.90;;;;;;5080370;28;20537;-85
2021/08/18 06:43:40;;;;;;;1999.90;999.90;;;16.30;99.90;;;;;;5077597;28;20528;-85
2021/08/18 06:46:10;;;;;;;1999.90;999.90;;;16.30;99.90;;;;;;5072066;28;20576;-83
2021/08/18 06:48:37;;;;;;;1999.90;999.90;;;16.40;99.90;;;;;;5075356;28;20437;-84
2021/08/18 06:51:04;;;;;;;1999.90;999.90;;;16.40;99.90;;;;;;5073772;28;20552;-83
2021/08/18 06:53:33;;;;;;;1999.90;999.90;;;16.40;99.90;;;;;;5070136;28;20472;-84
2021/08/18 06:56:01;;;;;;;1999.90;999.90;;;16.50;99.90;;;;;;5073594;28;21019;-84
2021/08/18 06:58:28;;;;;;;1999.90;999.90;;;16.40;99.90;;;;;;5074101;28;20446;-85
2021/08/18 07:00:55;;;;;;;1999.90;999.90;;;16.50;99.90;;;;;;5079453;28;20461;-84
2021/08/18 07:03:21;;;;;;;1999.90;999.90;;;16.50;99.90;;;;;;5074256;28;20441;-84
2021/08/18 07:05:48;;;;;;;1999.90;999.90;;;16.50;99.90;;;;;;5072269;28;20907;-84
2021/08/18 07:08:15;;;;;;;1999.90;999.90;;;16.50;99.90;;;;;;5081167;28;20545;-84
2021/08/18 07:10:42;;;;;;;1999.90;999.90;;;16.50;99.90;;;;;;5066011;28;20465;-84
2021/08/18 07:13:10;;;;;;;1999.90;999.90;;;16.70;99.90;;;;;;5069016;28;20447;-84
2021/08/18 07:15:37;;;;;;;1999.90;999.90;;;16.70;99.90;;;;;;5063343;28;20475;-83
2021/08/18 07:18:04;;;;;;;1999.90;999.90;;;16.80;99.90;;;;;;5069863;28;20446;-84
2021/08/18 07:20:31;;;;;;;1999.90;999.90;;;16.90;99.90;;;;;;5074826;28;20977;-84
2021/08/18 07:22:58;;;;;;;1999.90;999.90;;;16.80;99.90;;;;;;5070998;28;21024;-83
2021/08/18 07:25:24;;;;;;;1999.90;999.90;;;17.00;99.90;;;;;;5070602;28;20481;-84
2021/08/18 07:27:51;;;;;;;1999.90;999.90;;;17.10;99.90;;;;;;5080351;28;20467;-83
2021/08/18 07:30:19;;;;;;;1999.90;999.90;;;17.20;99.90;;;;;;5092902;28;20483;-83
2021/08/18 07:32:46;;;;;;;1999.90;999.90;;;17.10;99.90;;;;;;5095288;28;20481;-84
2021/08/18 07:35:13;;;;;;;1999.90;999.90;;;17.30;99.90;;;;;;5088511;28;20447;-81
2021/08/18 07:37:40;;;;;;;1999.90;999.90;;;17.20;99.90;;;;;;5076107;28;20553;-82
2021/08/18 07:40:08;;;;;;;1999.90;999.90;;;17.30;99.90;;;;;;5074048;28;20461;-82
2021/08/18 07:42:35;;;;;;;1999.90;999.90;;;17.30;99.90;;;;;;5067847;28;20445;-83
2021/08/18 07:45:02;;;;;;;1999.90;999.90;;;17.40;99.90;;;;;;5064632;28;20887;-82
2021/08/18 07:47:31;;;;;;;1999.90;999.90;;;17.40;99.90;;;;;;5069322;28;20513;-82
2021/08/18 07:49:58;;;;;;;1999.90;999.90;;;17.50;99.90;;;;;;5072816;28;20577;-82
2021/08/18 07:52:24;;;;;;;1999.90;999.90;;;17.40;99.90;;;;;;5078626;28;20443;-84
2021/08/18 07:54:51;;;;;;;1999.90;999.90;;;17.50;99.90;;;;;;5078352;28;20462;-81
2021/08/18 07:57:18;;;;;;;1999.90;999.90;;;17.40;99.90;;;;;;5078687;28;20548;-83
2021/08/18 07:59:45;;;;;;;1999.90;999.90;;;17.50;99.90;;;;;;5080650;28;20477;-82
2021/08/18 08:02:13;;;;;;;1999.90;999.90;;;17.50;99.90;;;;;;5079754;28;20447;-83
2021/08/18 08:04:41;;;;;;;1999.90;999.90;;;17.50;99.90;;;;;;5081353;28;20461;-83
2021/08/18 08:07:08;;;;;;;1999.90;999.90;;;17.70;99.90;;;;;;5080354;28;20486;-83
2021/08/18 08:09:34;;;;;;;1999.90;999.90;;;17.80;99.90;;;;;;5080334;28;20448;-83
2021/08/18 08:12:01;;;;;;;1999.90;999.90;;;18.00;99.90;;;;;;5081765;28;20466;-85
2021/08/18 08:14:30;;;;;;;1999.90;999.90;;;18.00;99.90;;;;;;5081028;28;20522;-83
2021/08/18 08:16:57;;;;;;;1999.90;999.90;;;18.00;99.90;;;;;;5085460;28;20482;-83
2021/08/18 08:19:24;;;;;;;1999.90;999.90;;;18.00;99.90;;;;;;5080380;28;20455;-82
2021/08/18 08:21:52;;;;;;;1999.90;999.90;;;18.00;99.90;;;;;;5079966;28;20561;-84
2021/08/18 08:24:19;;;;;;;1999.90;999.90;;;18.10;99.90;;;;;;5079643;28;20489;-83
2021/08/18 08:26:45;;;;;;;1999.90;999.90;;;18.10;99.90;;;;;;5078775;28;21052;-83
2021/08/18 08:29:12;;;;;;;1999.90;999.90;;;18.10;99.90;;;;;;5080038;28;20522;-84
2021/08/18 08:31:41;;;;;;;1999.90;999.90;;;18.30;99.90;;;;;;5078908;28;20533;-84
2021/08/18 08:34:07;;;;;;;1999.90;999.90;;;18.40;99.90;;;;;;5078343;28;20531;-82
2021/08/18 08:36:34;;;;;;;1999.90;999.90;;;18.50;99.90;;;;;;5076783;28;20473;-83
2021/08/18 08:39:03;;;;;;;1999.90;999.90;;;18.70;99.90;;;;;;5077570;28;20550;-83
2021/08/18 08:41:32;;;;;;;1999.90;999.90;;;18.70;99.90;;;;;;5074976;28;20446;-83
2021/08/18 08:43:59;;;;;;;1999.90;999.90;;;18.80;99.90;;;;;;5077484;28;20452;-83
2021/08/18 08:46:27;;;;;;;1999.90;999.90;;;18.80;99.90;;;;;;5077892;28;20548;-83
2021/08/18 08:48:55;;;;;;;1999.90;999.90;;;18.90;99.90;;;;;;5077524;28;20818;-83
2021/08/18 08:51:22;;;;;;;1999.90;999.90;;;19.10;99.90;;;;;;5078999;28;20435;-82
2021/08/18 08:53:48;;;;;;;1999.90;999.90;;;19.10;99.90;;;;;;5078556;28;21186;-83
2021/08/18 08:56:17;;;;;;;1999.90;999.90;;;19.30;99.90;;;;;;5077565;28;20458;-82
2021/08/18 08:58:43;;;;;;;1999.90;999.90;;;19.20;99.90;;;;;;5077922;28;20486;-83
2021/08/18 09:01:10;;;;;;;1999.90;999.90;;;19.30;99.90;;;;;;5077828;28;20454;-83
2021/08/18 09:03:37;;;;;;;1999.90;999.90;;;19.40;99.90;;;;;;5078314;28;20442;-83
2021/08/18 09:06:07;;;;;;;1999.90;999.90;;;19.70;99.90;;;;;;5079072;28;20478;-83
2021/08/18 09:08:46;;;;;;;1999.90;999.90;;;19.80;99.90;;;;;;5078363;28;20489;-84
2021/08/18 09:11:15;;;;;;;1999.90;999.90;;;19.90;99.90;;;;;;5081423;28;20542;-84
2021/08/18 09:13:45;;;;;;;1999.90;999.90;;;19.90;99.90;;;;;;5078436;28;20478;-83
2021/08/18 09:16:13;;;;;;;1999.90;999.90;;;20.00;99.90;;;;;;5077446;28;20492;-83
2021/08/18 09:18:45;;;;;;;1999.90;999.90;;;19.90;99.90;;;;;;5078392;28;20952;-83
2021/08/18 09:21:34;;;;;;;1999.90;999.90;;;20.10;99.90;;;;;;5067070;28;20482;-84
2021/08/18 09:24:24;;;;;;;1999.90;999.90;;;20.00;99.90;;;;;;5071880;28;20454;-84
2021/08/18 09:26:54;;;;;;;1999.90;999.90;;;19.90;99.90;;;;;;5075569;28;20566;-84
2021/08/18 09:29:41;;;;;;;1999.90;999.90;;;19.80;99.90;;;;;;5078546;28;20612;-83
2021/08/18 09:32:30;;;;;;;1999.90;999.90;;;19.70;99.90;;;;;;5069369;28;20463;-83
2021/08/18 09:34:58;;;;;;;1999.90;999.90;;;19.60;99.90;;;;;;5069507;28;20455;-83
2021/08/18 09:37:25;;;;;;;1999.90;999.90;;;19.40;99.90;;;;;;5071918;28;20455;-82
2021/08/18 09:39:53;;;;;;;1999.90;999.90;;;19.10;99.90;;;;;;5068662;28;20452;-83
2021/08/18 09:42:26;;;;;;;1999.90;999.90;;;19.00;99.90;;;;;;5064728;28;20448;-82
2021/08/18 09:45:12;;;;;;;1999.90;999.90;;;18.70;99.90;;;;;;5076758;28;20455;-84
2021/08/18 09:48:06;;;;;;;1999.90;999.90;;;18.60;99.90;;;;;;5075815;28;20498;-83
2021/08/18 09:50:41;;;;;;;1999.90;999.90;;;18.50;99.90;;;;;;5071186;28;20553;-83
2021/08/18 09:53:11;;;;;;;1999.90;999.90;;;18.30;99.90;;;;;;5070975;28;20441;-83
2021/08/18 09:55:40;;;;;;;1999.90;999.90;;;18.20;99.90;;;;;;5068895;28;20499;-82
2021/08/18 09:58:20;;;;;;;1999.90;999.90;;;18.20;99.90;;;;;;5075323;28;20534;-85
2021/08/18 10:00:48;;;;;;;1999.90;999.90;;;18.10;99.90;;;;;;5078044;28;20464;-84
2021/08/18 10:03:15;;;;;;;1999.90;999.90;;;18.10;99.90;;;;;;5077789;28;20519;-84
2021/08/18 10:05:42;;;;;;;1999.90;999.90;;;18.20;99.90;;;;;;5080794;28;20546;-84
2021/08/18 10:08:09;;;;;;;1999.90;999.90;;;18.30;99.90;;;;;;5078269;28;21102;-83
2021/08/18 10:10:39;;;;;;;1999.90;999.90;;;18.30;99.90;;;;;;5078484;28;20442;-83
2021/08/18 10:13:07;;;;;;;1999.90;999.90;;;18.30;99.90;;;;;;5078582;28;20493;-84
2021/08/18 10:15:35;;;;;;;1999.90;999.90;;;18.50;99.90;;;;;;5105419;22;20476;-80
2021/08/18 10:18:09;;;;;;;1999.90;999.90;;;18.50;99.90;;;;;;5081836;28;20485;-79
2021/08/18 10:20:46;;;;;;;;;;;;;;;;;;;;;
2021/08/18 10:23:13;;;;;;;1999.90;999.90;;;18.70;99.90;;;;;;5081879;28;20476;-79
2021/08/18 10:25:47;;;;;;;1999.90;999.90;;;18.80;99.90;;;;;;5082471;28;20532;-77
2021/08/18 10:28:22;;;;;;;1999.90;999.90;;;18.80;99.90;;;;;;5065480;28;20476;-77
2021/08/18 10:30:51;;;;;;;1999.90;999.90;;;18.90;99.90;;;;;;5053059;28;20461;-80
2021/08/18 10:33:55;;;;;;;1999.90;999.90;;;19.10;99.90;;;;;;5074420;28;20454;-81
2021/08/18 10:41:58;;;;;;;1999.90;999.90;;;19.40;99.90;;;;;;5128291;22;20488;-81
2021/08/18 10:44:40;;;;;;;1999.90;999.90;;;19.50;99.90;;;;;;5125159;28;20454;-78
2021/08/18 10:47:20;;;;;;;1999.90;999.90;;;19.50;99.90;;;;;;5063830;22;20521;-77
2021/08/18 10:49:48;;;;;;;1999.90;999.90;;;19.50;99.90;;;;;;5016800;28;20445;-77
2021/08/18 10:52:51;;;;;;;1999.90;999.90;;;19.60;99.90;;;;;;5035324;28;20479;-77
2021/08/18 10:55:29;;;;;;;1999.90;999.90;;;19.50;99.90;;;;;;5026532;28;20445;-79
2021/08/18 10:58:05;;;;;;;1999.90;999.90;;;19.50;99.90;;;;;;5015525;28;20532;-78
2021/08/18 11:00:42;;;;;;;1999.90;999.90;;;19.60;99.90;;;;;;5017511;28;20488;-77
2021/08/18 11:03:09;;;;;;;1999.90;999.90;;;19.60;99.90;;;;;;5019178;28;20459;-78
2021/08/18 11:05:49;;;;;;;1999.90;999.90;;;19.60;99.90;;;;;;5006196;28;20483;-78
2021/08/18 11:08:17;;;;;;;1999.90;999.90;;;19.50;99.90;;;;;;5010525;28;20540;-78
2021/08/18 11:11:13;;;;;;;1999.90;999.90;;;19.60;99.90;;;;;;5014800;28;20458;-80
2021/08/18 11:13:43;;;;;;;1999.90;999.90;;;19.70;99.90;;;;;;5017817;28;20441;-79
2021/08/18 11:16:12;;;;;;;1999.90;999.90;;;19.80;99.90;;;;;;5016583;28;20484;-78
2021/08/18 11:18:47;;;;;;;1999.90;999.90;;;19.80;99.90;;;;;;5015010;28;20866;-78
2021/08/18 11:21:19;;;;;;;1999.90;999.90;;;19.80;99.90;;;;;;5014781;28;20460;-80
2021/08/18 11:23:54;;;;;;;1999.90;999.90;;;19.90;99.90;;;;;;5041227;28;20444;-80
2021/08/18 11:26:23;;;;;;;1999.90;999.90;;;19.90;99.90;;;;;;5019138;28;20472;-81
2021/08/18 11:28:59;;;;;;;1999.90;999.90;;;20.00;99.90;;;;;;5008880;28;20562;-78
2021/08/18 11:31:39;;;;;;;1999.90;999.90;;;20.10;99.90;;;;;;5026040;28;20461;-77
2021/08/18 11:34:20;;;;;;;1999.90;999.90;;;20.20;99.90;;;;;;5004567;28;20451;-78
2021/08/18 11:36:47;;;;;;;1999.90;999.90;;;20.30;99.90;;;;;;5015944;28;20467;-78
2021/08/18 11:39:16;;;;;;;1999.90;999.90;;;20.30;99.90;;;;;;5014925;28;20478;-77
2021/08/18 11:41:45;;;;;;;1999.90;999.90;;;20.50;99.90;;;;;;5019125;28;20461;-80
2021/08/18 11:44:28;;;;;;;1999.90;999.90;;;20.40;99.90;;;;;;5023388;28;20459;-81
2021/08/18 11:47:06;;;;;;;1999.90;999.90;;;20.40;99.90;;;;;;5024380;28;20485;-79
2021/08/18 11:49:37;;;;;;;1999.90;999.90;;;20.40;99.90;;;;;;5018571;28;20453;-78
2021/08/18 11:52:31;;;;;;;1999.90;999.90;;;20.40;99.90;;;;;;5024551;28;20454;-78
2021/08/18 11:55:00;;;;;;;1999.90;999.90;;;20.20;99.90;;;;;;5020708;28;20501;-80
2021/08/18 11:57:29;;;;;;;1999.90;999.90;;;20.30;99.90;;;;;;5018899;28;21168;-78
2021/08/18 12:00:02;;;;;;;1999.90;999.90;;;20.10;99.90;;;;;;5018887;28;20456;-78
2021/08/18 12:02:30;;;;;;;1999.90;999.90;;;20.20;99.90;;;;;;5026260;28;20434;-80
2021/08/18 12:04:58;;;;;;;1999.90;999.90;;;20.10;99.90;;;;;;5027668;28;20474;-80
2021/08/18 12:12:35;;;;;;;1999.90;999.90;;;20.00;99.90;;;;;;4279876;26;20505;-79
2021/08/18 12:15:13;;;;;;;1999.90;999.90;;;20.10;99.90;;;;;;5082303;28;20453;-79
2021/08/18 12:22:43;;;;;;;1999.90;999.90;;;19.90;99.90;;;;;;5076889;28;20466;-78
2021/08/18 12:25:14;;;;;;;1999.90;999.90;;;20.00;99.90;;;;;;5078663;28;20498;-79